Time;durP1;ratioP1;P1;durP2;ratioP2;P2;SDS_P1;SDS_P2;PMS_P1;PMS_P2;Temp;Humidity;BMP_temperature;BMP_pressure;BME280_temperature;BME280_humidity;BME280_pressure;Samples;Min_cycle;Max_cycle;Signal;HPM_P1;HPM_P2
2021/03/29 00:00:23;;;;;;;0.00;0.00;;;;;;;;;;5055399;28;20335;-70
2021/03/29 00:02:48;;;;;;;0.10;0.10;;;;;;;;;;5071254;28;20015;-70
2021/03/29 00:05:14;;;;;;;0.08;0.08;;;;;;;;;;5075220;28;20043;-70
2021/03/29 00:07:40;;;;;;;0.10;0.10;;;;;;;;;;5076420;28;20019;-70
2021/03/29 00:10:05;;;;;;;0.08;0.08;;;;;;;;;;5075310;28;21148;-67
2021/03/29 00:12:30;;;;;;;0.10;0.10;;;;;;;;;;5092847;28;20034;-68
2021/03/29 00:14:56;;;;;;;0.10;0.10;;;;;;;;;;5075109;28;20031;-68
2021/03/29 00:17:21;;;;;;;0.10;0.10;;;;;;;;;;5075253;28;20746;-68
2021/03/29 00:19:47;;;;;;;0.10;0.10;;;;;;;;;;5075061;28;20020;-69
2021/03/29 00:22:12;;;;;;;0.10;0.10;;;;;;;;;;5074042;28;20078;-69
2021/03/29 00:24:37;;;;;;;0.10;0.10;;;;;;;;;;5088963;28;20050;-68
2021/03/29 00:27:02;;;;;;;0.10;0.10;;;;;;;;;;5075902;28;20804;-68
2021/03/29 00:29:28;;;;;;;0.10;0.10;;;;;;;;;;5095944;28;20115;-69
2021/03/29 00:31:53;;;;;;;0.10;0.10;;;;;;;;;;5095486;28;20064;-69
2021/03/29 00:34:18;;;;;;;0.10;0.10;;;;;;;;;;5096026;28;20277;-69
2021/03/29 00:36:43;;;;;;;0.10;0.10;;;;;;;;;;5094928;28;20106;-68
2021/03/29 00:39:08;;;;;;;0.00;0.00;;;;;;;;;;5095205;28;20051;-69
2021/03/29 00:41:34;;;;;;;0.10;0.10;;;;;;;;;;5096098;28;20431;-69
2021/03/29 00:43:59;;;;;;;0.10;0.10;;;;;;;;;;5079397;28;20313;-69
2021/03/29 00:46:24;;;;;;;0.10;0.10;;;;;;;;;;5094369;28;20490;-69
2021/03/29 00:48:50;;;;;;;0.10;0.10;;;;;;;;;;5095199;28;20415;-68
2021/03/29 00:51:22;;;;;;;0.03;0.03;;;;;;;;;;5112640;28;20022;-68
2021/03/29 00:53:48;;;;;;;0.10;0.10;;;;;;;;;;5093171;28;20060;-68
2021/03/29 00:56:14;;;;;;;0.10;0.10;;;;;;;;;;5095356;28;20069;-69
2021/03/29 00:58:39;;;;;;;0.10;0.10;;;;;;;;;;5077782;28;20070;-69
2021/03/29 01:01:09;;;;;;;0.10;0.10;;;;;;;;;;5093220;28;20592;-69
2021/03/29 01:03:35;;;;;;;0.10;0.10;;;;;;;;;;5077654;28;20015;-68
2021/03/29 01:06:01;;;;;;;0.10;0.10;;;;;;;;;;5094481;28;20076;-67
2021/03/29 01:08:27;;;;;;;0.10;0.10;;;;;;;;;;5094553;28;20468;-67
2021/03/29 01:10:52;;;;;;;0.10;0.10;;;;;;;;;;5077452;28;20161;-68
2021/03/29 01:13:18;;;;;;;0.10;0.10;;;;;;;;;;5094674;28;20088;-67
2021/03/29 01:15:43;;;;;;;0.10;0.10;;;;;;;;;;5093387;28;20024;-68
2021/03/29 01:18:09;;;;;;;0.10;0.10;;;;;;;;;;5092910;28;20023;-67
2021/03/29 01:20:46;;;;;;;0.10;0.10;;;;;;;;;;5093863;28;20020;-68
2021/03/29 01:23:11;;;;;;;0.10;0.10;;;;;;;;;;5078194;28;20065;-69
2021/03/29 01:25:43;;;;;;;0.10;0.10;;;;;;;;;;5077557;28;20043;-69
2021/03/29 01:28:09;;;;;;;0.10;0.10;;;;;;;;;;5095064;28;20019;-68
2021/03/29 01:30:35;;;;;;;0.10;0.10;;;;;;;;;;5077329;28;20083;-67
2021/03/29 01:33:00;;;;;;;0.10;0.10;;;;;;;;;;5094075;28;20055;-68
2021/03/29 01:35:35;;;;;;;0.10;0.10;;;;;;;;;;5077403;28;20146;-68
2021/03/29 01:38:00;;;;;;;0.10;0.10;;;;;;;;;;5077677;28;20061;-68
2021/03/29 01:40:25;;;;;;;0.10;0.10;;;;;;;;;;5096352;28;20027;-68
2021/03/29 01:42:51;;;;;;;0.10;0.10;;;;;;;;;;5094019;28;20084;-69
2021/03/29 01:45:16;;;;;;;0.10;0.10;;;;;;;;;;5095325;28;20054;-69
2021/03/29 01:47:41;;;;;;;0.10;0.10;;;;;;;;;;5094804;28;20261;-68
2021/03/29 01:50:08;;;;;;;0.10;0.10;;;;;;;;;;5077085;28;20498;-69
2021/03/29 01:52:33;;;;;;;0.10;0.10;;;;;;;;;;5076837;28;20023;-69
2021/03/29 01:54:59;;;;;;;0.10;0.10;;;;;;;;;;5094178;28;20069;-69
2021/03/29 01:57:24;;;;;;;0.10;0.10;;;;;;;;;;5094276;28;20020;-69
2021/03/29 01:59:49;;;;;;;0.10;0.10;;;;;;;;;;5093604;28;20217;-69
2021/03/29 02:02:15;;;;;;;0.10;0.10;;;;;;;;;;5093679;28;20318;-69
2021/03/29 02:04:40;;;;;;;0.10;0.10;;;;;;;;;;5093767;28;20043;-69
2021/03/29 02:07:08;;;;;;;0.10;0.10;;;;;;;;;;5076810;28;20319;-69
2021/03/29 02:09:34;;;;;;;0.10;0.10;;;;;;;;;;5094775;28;20022;-69
2021/03/29 02:11:59;;;;;;;0.03;0.03;;;;;;;;;;5093584;28;20479;-69
2021/03/29 02:14:28;;;;;;;0.10;0.10;;;;;;;;;;5076985;28;20043;-69
2021/03/29 02:16:56;;;;;;;0.10;0.10;;;;;;;;;;5076969;28;20019;-69
2021/03/29 02:19:21;;;;;;;0.10;0.10;;;;;;;;;;5093581;28;20027;-68
2021/03/29 02:21:48;;;;;;;0.10;0.10;;;;;;;;;;5076990;28;20502;-69
2021/03/29 02:24:13;;;;;;;0.10;0.10;;;;;;;;;;5087512;28;20055;-70
2021/03/29 02:26:38;;;;;;;0.10;0.10;;;;;;;;;;5057410;28;20016;-70
2021/03/29 02:29:04;;;;;;;0.10;0.10;;;;;;;;;;5072565;28;20705;-69
2021/03/29 02:31:29;;;;;;;0.10;0.10;;;;;;;;;;5057124;28;20447;-69
2021/03/29 02:33:55;;;;;;;0.10;0.10;;;;;;;;;;5074006;28;20468;-69
2021/03/29 02:36:20;;;;;;;0.10;0.10;;;;;;;;;;5073826;28;20012;-70
2021/03/29 02:38:46;;;;;;;0.10;0.10;;;;;;;;;;5057376;28;20020;-69
2021/03/29 02:41:11;;;;;;;0.13;0.13;;;;;;;;;;5074326;28;20019;-69
2021/03/29 02:43:36;;;;;;;0.10;0.10;;;;;;;;;;5073776;28;20020;-70
2021/03/29 02:46:02;;;;;;;0.10;0.10;;;;;;;;;;5073394;28;20274;-70
2021/03/29 02:48:29;;;;;;;0.10;0.10;;;;;;;;;;5091609;28;20296;-69
2021/03/29 02:50:55;;;;;;;0.10;0.10;;;;;;;;;;5073176;28;20024;-70
2021/03/29 02:53:25;;;;;;;0.10;0.10;;;;;;;;;;5054644;28;20039;-69
2021/03/29 02:55:50;;;;;;;0.10;0.10;;;;;;;;;;5073502;28;20463;-69
2021/03/29 02:58:19;;;;;;;0.10;0.10;;;;;;;;;;5072354;28;20024;-69
2021/03/29 03:00:44;;;;;;;0.10;0.10;;;;;;;;;;5070570;28;20024;-69
2021/03/29 03:03:09;;;;;;;0.20;0.20;;;;;;;;;;5072238;28;20101;-70
2021/03/29 03:05:35;;;;;;;0.10;0.10;;;;;;;;;;5055561;28;20314;-69
2021/03/29 03:08:00;;;;;;;0.10;0.10;;;;;;;;;;5071857;28;20468;-69
2021/03/29 03:10:26;;;;;;;0.10;0.10;;;;;;;;;;5071469;28;20036;-69
2021/03/29 03:12:51;;;;;;;0.20;0.20;;;;;;;;;;5089920;28;20284;-69
2021/03/29 03:15:18;;;;;;;0.10;0.10;;;;;;;;;;5072043;28;20020;-69
2021/03/29 03:17:43;;;;;;;0.10;0.10;;;;;;;;;;5071973;28;20089;-69
2021/03/29 03:20:09;;;;;;;0.10;0.10;;;;;;;;;;5072347;28;20020;-69
2021/03/29 03:22:34;;;;;;;0.20;0.20;;;;;;;;;;5055335;28;20124;-69
2021/03/29 03:24:59;;;;;;;0.10;0.10;;;;;;;;;;5055469;28;20048;-69
2021/03/29 03:27:24;;;;;;;0.10;0.10;;;;;;;;;;5055934;28;20465;-69
2021/03/29 03:29:50;;;;;;;0.20;0.20;;;;;;;;;;5090390;28;20030;-70
2021/03/29 03:32:15;;;;;;;0.20;0.20;;;;;;;;;;5090422;28;20274;-69
2021/03/29 03:34:41;;;;;;;0.10;0.10;;;;;;;;;;5072756;28;20019;-69
2021/03/29 03:37:07;;;;;;;0.10;0.10;;;;;;;;;;5090510;28;20107;-70
2021/03/29 03:39:32;;;;;;;0.10;0.10;;;;;;;;;;5073794;28;20024;-69
2021/03/29 03:41:57;;;;;;;0.10;0.10;;;;;;;;;;5094492;28;20055;-69
2021/03/29 03:44:22;;;;;;;0.10;0.10;;;;;;;;;;5076937;28;20103;-69
2021/03/29 03:46:48;;;;;;;0.10;0.10;;;;;;;;;;5076514;28;20265;-69
2021/03/29 03:49:14;;;;;;;0.10;0.10;;;;;;;;;;5076431;28;20262;-69
2021/03/29 03:51:39;;;;;;;0.20;0.20;;;;;;;;;;5060000;28;20031;-69
2021/03/29 03:54:07;;;;;;;0.10;0.10;;;;;;;;;;5075906;28;20049;-69
2021/03/29 03:56:32;;;;;;;0.10;0.10;;;;;;;;;;5059906;28;20106;-69
2021/03/29 03:58:58;;;;;;;0.10;0.10;;;;;;;;;;5075841;28;20026;-69
2021/03/29 04:01:23;;;;;;;0.10;0.10;;;;;;;;;;5076638;28;20016;-69
2021/03/29 04:03:48;;;;;;;0.10;0.10;;;;;;;;;;5076501;28;20054;-70
2021/03/29 04:06:13;;;;;;;0.10;0.10;;;;;;;;;;5075847;28;20032;-70
2021/03/29 04:08:39;;;;;;;0.10;0.10;;;;;;;;;;5076273;28;20281;-70
2021/03/29 04:11:05;;;;;;;0.10;0.10;;;;;;;;;;5076487;28;20810;-70
2021/03/29 04:13:31;;;;;;;0.10;0.10;;;;;;;;;;5076820;28;20023;-70
2021/03/29 04:15:57;;;;;;;0.10;0.10;;;;;;;;;;5076644;28;20479;-70
2021/03/29 04:18:25;;;;;;;0.10;0.10;;;;;;;;;;5076331;28;20020;-70
2021/03/29 04:20:51;;;;;;;0.10;0.10;;;;;;;;;;5076790;28;20425;-70
2021/03/29 04:23:16;;;;;;;0.13;0.13;;;;;;;;;;5076323;28;20123;-70
2021/03/29 04:25:42;;;;;;;0.10;0.10;;;;;;;;;;5076447;28;20040;-70
2021/03/29 04:28:07;;;;;;;0.10;0.10;;;;;;;;;;5076502;28;20023;-70
2021/03/29 04:30:32;;;;;;;0.10;0.10;;;;;;;;;;5074519;28;20028;-69
2021/03/29 04:32:57;;;;;;;0.20;0.20;;;;;;;;;;5074764;28;20048;-69
2021/03/29 04:35:23;;;;;;;0.10;0.10;;;;;;;;;;5057334;28;20787;-67
2021/03/29 04:37:49;;;;;;;0.10;0.10;;;;;;;;;;5057206;28;20266;-67
2021/03/29 04:40:14;;;;;;;0.10;0.10;;;;;;;;;;5073521;28;20103;-67
2021/03/29 04:42:39;;;;;;;0.10;0.10;;;;;;;;;;5057847;28;20357;-67
2021/03/29 04:45:06;;;;;;;0.10;0.10;;;;;;;;;;5057542;28;20482;-67
2021/03/29 04:47:31;;;;;;;0.20;0.20;;;;;;;;;;5093004;28;20793;-67
2021/03/29 04:49:59;;;;;;;0.10;0.10;;;;;;;;;;5092617;28;20062;-67
2021/03/29 04:52:24;;;;;;;0.10;0.10;;;;;;;;;;5071091;28;21059;-67
2021/03/29 04:54:49;;;;;;;0.10;0.10;;;;;;;;;;5092100;28;20106;-67
2021/03/29 04:57:14;;;;;;;0.10;0.10;;;;;;;;;;5090835;28;20281;-67
2021/03/29 04:59:40;;;;;;;0.10;0.10;;;;;;;;;;5092435;28;20335;-67
2021/03/29 05:02:05;;;;;;;0.10;0.10;;;;;;;;;;5057170;28;20382;-70
2021/03/29 05:04:30;;;;;;;0.10;0.10;;;;;;;;;;5073905;28;20269;-67
2021/03/29 05:06:55;;;;;;;0.10;0.10;;;;;;;;;;5056707;28;20270;-67
2021/03/29 05:09:20;;;;;;;0.10;0.10;;;;;;;;;;5073745;28;20023;-67
2021/03/29 05:11:48;;;;;;;0.20;0.20;;;;;;;;;;5073982;28;20020;-67
2021/03/29 05:14:13;;;;;;;0.10;0.10;;;;;;;;;;5092091;28;20495;-67
2021/03/29 05:16:39;;;;;;;0.10;0.10;;;;;;;;;;5073979;28;20028;-67
2021/03/29 05:19:04;;;;;;;0.10;0.10;;;;;;;;;;5092286;28;20526;-67
2021/03/29 05:21:29;;;;;;;0.10;0.10;;;;;;;;;;5074165;28;20016;-68
2021/03/29 05:23:55;;;;;;;0.10;0.10;;;;;;;;;;5094270;28;20124;-68
2021/03/29 05:26:20;;;;;;;0.10;0.10;;;;;;;;;;5108323;28;20316;-67
2021/03/29 05:28:45;;;;;;;0.20;0.20;;;;;;;;;;5079613;28;20278;-67
2021/03/29 05:31:10;;;;;;;0.10;0.10;;;;;;;;;;5091921;28;20619;-67
2021/03/29 05:33:35;;;;;;;0.17;0.17;;;;;;;;;;5076567;28;20373;-68
2021/03/29 05:36:00;;;;;;;0.10;0.10;;;;;;;;;;5090751;28;20326;-67
2021/03/29 05:38:26;;;;;;;0.20;0.20;;;;;;;;;;5078043;28;20273;-67
2021/03/29 05:40:51;;;;;;;0.17;0.17;;;;;;;;;;5092022;28;20043;-67
2021/03/29 05:43:16;;;;;;;0.20;0.20;;;;;;;;;;5076843;28;20415;-69
2021/03/29 05:45:42;;;;;;;0.10;0.10;;;;;;;;;;5086303;28;20064;-69
2021/03/29 05:48:08;;;;;;;0.10;0.10;;;;;;;;;;5080086;28;20308;-69
2021/03/29 05:50:33;;;;;;;0.15;0.15;;;;;;;;;;5083250;28;20480;-69
2021/03/29 05:52:58;;;;;;;0.10;0.10;;;;;;;;;;5068457;28;20015;-70
2021/03/29 05:55:29;;;;;;;0.20;0.20;;;;;;;;;;5068331;28;20266;-69
2021/03/29 06:00:30;;;;;;;0.10;0.10;;;;;;;;;;5103345;28;20031;-69
2021/03/29 06:02:55;;;;;;;0.10;0.10;;;;;;;;;;5100620;28;20019;-69
2021/03/29 06:05:33;;;;;;;0.20;0.20;;;;;;;;;;5085151;28;20533;-69
2021/03/29 06:07:58;;;;;;;0.20;0.20;;;;;;;;;;5083263;28;20662;-69
2021/03/29 06:10:23;;;;;;;0.17;0.17;;;;;;;;;;5084117;28;20050;-70
2021/03/29 06:12:54;;;;;;;0.20;0.20;;;;;;;;;;5068452;28;20028;-70
2021/03/29 06:15:19;;;;;;;0.10;0.10;;;;;;;;;;5083458;28;20270;-70
2021/03/29 06:17:44;;;;;;;0.10;0.10;;;;;;;;;;5066699;28;20024;-69
2021/03/29 06:20:10;;;;;;;0.10;0.10;;;;;;;;;;5080571;28;20306;-67
2021/03/29 06:22:36;;;;;;;0.20;0.20;;;;;;;;;;5087109;28;20100;-68
2021/03/29 06:25:12;;;;;;;0.20;0.20;;;;;;;;;;5089773;28;20063;-69
2021/03/29 06:27:40;;;;;;;0.10;0.10;;;;;;;;;;5093278;28;20034;-71
2021/03/29 06:30:12;;;;;;;0.10;0.10;;;;;;;;;;5111393;28;20027;-68
2021/03/29 06:32:37;;;;;;;0.10;0.10;;;;;;;;;;5110929;28;20019;-68
2021/03/29 06:35:16;;;;;;;0.10;0.10;;;;;;;;;;5077005;28;20387;-68
2021/03/29 06:37:41;;;;;;;0.10;0.10;;;;;;;;;;5094700;28;20375;-68
2021/03/29 06:40:07;;;;;;;0.13;0.13;;;;;;;;;;5094242;28;20034;-68
2021/03/29 06:42:32;;;;;;;0.20;0.20;;;;;;;;;;5077291;28;20277;-68
2021/03/29 06:45:07;;;;;;;0.10;0.10;;;;;;;;;;5076942;28;20027;-68
2021/03/29 06:47:35;;;;;;;0.10;0.10;;;;;;;;;;5076677;28;20269;-68
2021/03/29 06:50:00;;;;;;;0.10;0.10;;;;;;;;;;5093205;28;20530;-68
2021/03/29 06:52:25;;;;;;;0.10;0.10;;;;;;;;;;5093409;28;20031;-68
2021/03/29 06:54:51;;;;;;;0.10;0.10;;;;;;;;;;5111157;28;20027;-68
2021/03/29 06:57:29;;;;;;;0.17;0.17;;;;;;;;;;5092937;28;20031;-69
2021/03/29 06:59:54;;;;;;;0.10;0.10;;;;;;;;;;5092641;28;20049;-69
2021/03/29 07:02:34;;;;;;;0.10;0.10;;;;;;;;;;5092861;28;20015;-69
2021/03/29 07:05:00;;;;;;;0.10;0.10;;;;;;;;;;5091745;28;20352;-68
2021/03/29 07:07:25;;;;;;;0.10;0.10;;;;;;;;;;5075213;28;20057;-68
2021/03/29 07:09:50;;;;;;;0.10;0.10;;;;;;;;;;5092039;28;20015;-68
2021/03/29 07:12:15;;;;;;;0.10;0.10;;;;;;;;;;5074760;28;20305;-68
2021/03/29 07:14:40;;;;;;;0.10;0.10;;;;;;;;;;5074789;28;20277;-67
2021/03/29 07:17:05;;;;;;;0.20;0.20;;;;;;;;;;5092611;28;20273;-68
2021/03/29 07:19:31;;;;;;;0.20;0.20;;;;;;;;;;5075757;28;20057;-68
2021/03/29 07:21:56;;;;;;;0.10;0.10;;;;;;;;;;5075331;28;20024;-68
2021/03/29 07:24:21;;;;;;;0.10;0.10;;;;;;;;;;5075525;28;20281;-68
2021/03/29 07:26:46;;;;;;;0.10;0.10;;;;;;;;;;5092064;28;20343;-68
2021/03/29 07:29:18;;;;;;;0.10;0.10;;;;;;;;;;5110182;28;20319;-68
2021/03/29 07:31:44;;;;;;;0.20;0.20;;;;;;;;;;5109628;28;20528;-68
2021/03/29 07:34:09;;;;;;;0.10;0.10;;;;;;;;;;5092690;28;20106;-68
2021/03/29 07:36:45;;;;;;;0.10;0.10;;;;;;;;;;5092110;28;20027;-68
2021/03/29 07:39:10;;;;;;;0.10;0.10;;;;;;;;;;5092300;28;20209;-68
2021/03/29 07:41:36;;;;;;;0.10;0.10;;;;;;;;;;5074896;28;20654;-68
2021/03/29 07:44:13;;;;;;;0.22;0.20;;;;;;;;;;5091782;28;20019;-68
2021/03/29 07:46:39;;;;;;;0.10;0.10;;;;;;;;;;5090900;28;20028;-68
2021/03/29 07:49:04;;;;;;;0.10;0.10;;;;;;;;;;5075678;28;20015;-68
2021/03/29 07:51:29;;;;;;;0.10;0.10;;;;;;;;;;5091803;28;20030;-68
2021/03/29 07:54:00;;;;;;;0.10;0.10;;;;;;;;;;5092304;28;20027;-68
2021/03/29 07:56:34;;;;;;;0.10;0.10;;;;;;;;;;5093443;28;20019;-68
2021/03/29 07:58:59;;;;;;;0.10;0.10;;;;;;;;;;5110338;28;20044;-68
2021/03/29 08:01:25;;;;;;;0.10;0.10;;;;;;;;;;5092414;28;20016;-69
2021/03/29 08:03:53;;;;;;;0.10;0.10;;;;;;;;;;5075551;28;20016;-69
2021/03/29 08:06:42;;;;;;;0.10;0.10;;;;;;;;;;5073783;28;20019;-69
2021/03/29 08:09:08;;;;;;;0.10;0.10;;;;;;;;;;5096863;28;20039;-69
2021/03/29 08:11:48;;;;;;;0.10;0.10;;;;;;;;;;5111060;28;20031;-68
2021/03/29 08:14:34;;;;;;;0.10;0.10;;;;;;;;;;5088580;28;20019;-68
2021/03/29 08:17:19;;;;;;;0.10;0.10;;;;;;;;;;5109794;28;20028;-67
2021/03/29 08:20:04;;;;;;;0.10;0.10;;;;;;;;;;5109890;28;20028;-67
2021/03/29 08:22:29;;;;;;;0.10;0.10;;;;;;;;;;5091474;28;20290;-68
2021/03/29 08:24:54;;;;;;;0.10;0.10;;;;;;;;;;5074088;28;20074;-67
2021/03/29 08:27:19;;;;;;;0.10;0.10;;;;;;;;;;5113787;28;20726;-67
2021/03/29 08:29:48;;;;;;;0.10;0.10;;;;;;;;;;5113339;28;20028;-67
2021/03/29 08:32:28;;;;;;;0.10;0.10;;;;;;;;;;5112436;28;20476;-67
2021/03/29 08:35:00;;;;;;;0.10;0.10;;;;;;;;;;5113321;28;20026;-67
2021/03/29 08:37:36;;;;;;;0.10;0.10;;;;;;;;;;5113275;28;20042;-67
2021/03/29 08:40:22;;;;;;;0.10;0.10;;;;;;;;;;5094737;28;20035;-67
2021/03/29 08:42:47;;;;;;;0.10;0.10;;;;;;;;;;5094203;28;20082;-67
2021/03/29 08:45:13;;;;;;;0.10;0.10;;;;;;;;;;5113423;28;20433;-67
2021/03/29 08:47:39;;;;;;;0.10;0.10;;;;;;;;;;5094969;28;20033;-67
2021/03/29 08:50:24;;;;;;;0.10;0.10;;;;;;;;;;5112997;28;20537;-67
2021/03/29 08:52:50;;;;;;;0.10;0.10;;;;;;;;;;5094569;28;20027;-67
2021/03/29 08:55:19;;;;;;;0.10;0.10;;;;;;;;;;5094872;28;20472;-67
2021/03/29 08:57:45;;;;;;;0.10;0.10;;;;;;;;;;5094593;28;20023;-67
2021/03/29 09:00:11;;;;;;;0.10;0.10;;;;;;;;;;5094704;28;20026;-67
2021/03/29 09:02:37;;;;;;;0.10;0.10;;;;;;;;;;5078203;28;20027;-67
2021/03/29 09:05:02;;;;;;;0.08;0.08;;;;;;;;;;5094115;28;20467;-67
2021/03/29 09:07:39;;;;;;;0.10;0.10;;;;;;;;;;5077677;28;20030;-67
2021/03/29 09:10:13;;;;;;;0.05;0.05;;;;;;;;;;5095039;28;20088;-67
2021/03/29 09:12:38;;;;;;;0.03;0.03;;;;;;;;;;5094462;28;20500;-67
2021/03/29 09:15:03;;;;;;;0.10;0.10;;;;;;;;;;5094373;28;20062;-68
2021/03/29 09:17:30;;;;;;;0.08;0.08;;;;;;;;;;5077006;28;20300;-67
2021/03/29 09:19:56;;;;;;;0.10;0.10;;;;;;;;;;5094810;28;20026;-67
2021/03/29 09:22:28;;;;;;;0.10;0.10;;;;;;;;;;5093844;28;20103;-68
2021/03/29 09:24:53;;;;;;;0.10;0.10;;;;;;;;;;5067016;28;20101;-67
2021/03/29 09:27:24;;;;;;;0.10;0.10;;;;;;;;;;5057311;28;20047;-66
2021/03/29 09:29:49;;;;;;;0.10;0.10;;;;;;;;;;5073370;28;20258;-66
2021/03/29 09:32:18;;;;;;;0.10;0.10;;;;;;;;;;5091887;28;20020;-66
2021/03/29 09:34:52;;;;;;;0.00;0.00;;;;;;;;;;5073544;28;20274;-66
2021/03/29 09:37:18;;;;;;;0.10;0.10;;;;;;;;;;5073017;28;20717;-66
2021/03/29 09:39:44;;;;;;;0.10;0.10;;;;;;;;;;5073397;28;20022;-66
2021/03/29 09:42:09;;;;;;;0.10;0.10;;;;;;;;;;5073946;28;20450;-66
2021/03/29 09:44:34;;;;;;;0.00;0.00;;;;;;;;;;5072254;28;20431;-66
2021/03/29 09:46:59;;;;;;;0.10;0.10;;;;;;;;;;5091341;28;20051;-66
2021/03/29 09:49:25;;;;;;;0.00;0.00;;;;;;;;;;5090525;28;20031;-66
2021/03/29 09:51:50;;;;;;;0.10;0.10;;;;;;;;;;5072860;28;20444;-66
2021/03/29 09:54:19;;;;;;;0.00;0.00;;;;;;;;;;5073192;28;20024;-66
2021/03/29 09:56:44;;;;;;;0.00;0.00;;;;;;;;;;5090641;28;20032;-66
2021/03/29 09:59:12;;;;;;;0.00;0.00;;;;;;;;;;5056487;28;20028;-67
2021/03/29 10:01:42;;;;;;;0.00;0.00;;;;;;;;;;5072698;28;20270;-66
2021/03/29 10:04:11;;;;;;;0.00;0.00;;;;;;;;;;5055969;28;20020;-66
2021/03/29 10:06:36;;;;;;;0.00;0.00;;;;;;;;;;5056550;28;20020;-66
2021/03/29 10:09:03;;;;;;;0.00;0.00;;;;;;;;;;5072540;28;20362;-66
2021/03/29 10:11:41;;;;;;;0.10;0.10;;;;;;;;;;5056175;28;20262;-67
2021/03/29 10:14:06;;;;;;;0.00;0.00;;;;;;;;;;5072122;28;20024;-66
2021/03/29 10:16:31;;;;;;;0.00;0.00;;;;;;;;;;5072571;28;20030;-65
2021/03/29 10:19:03;;;;;;;0.00;0.00;;;;;;;;;;5090633;28;20028;-65
2021/03/29 10:21:28;;;;;;;0.10;0.10;;;;;;;;;;5089795;28;20020;-65
2021/03/29 10:24:12;;;;;;;0.00;0.00;;;;;;;;;;5073865;28;20016;-65
2021/03/29 10:26:38;;;;;;;0.00;0.00;;;;;;;;;;5076002;28;20020;-65
2021/03/29 10:29:04;;;;;;;0.00;0.00;;;;;;;;;;5074002;28;20031;-65
2021/03/29 10:31:30;;;;;;;0.00;0.00;;;;;;;;;;5070536;28;20449;-65
2021/03/29 10:33:56;;;;;;;0.00;0.00;;;;;;;;;;5074307;28;20034;-65
2021/03/29 10:36:21;;;;;;;0.00;0.00;;;;;;;;;;5077453;28;20452;-66
2021/03/29 10:38:47;;;;;;;0.10;0.10;;;;;;;;;;5088163;28;20471;-64
2021/03/29 10:41:12;;;;;;;0.00;0.00;;;;;;;;;;5092123;28;20631;-65
2021/03/29 10:43:37;;;;;;;0.00;0.00;;;;;;;;;;5067816;28;20026;-65
2021/03/29 10:46:03;;;;;;;0.10;0.10;;;;;;;;;;5070370;28;20518;-65
2021/03/29 10:48:28;;;;;;;0.00;0.00;;;;;;;;;;5051852;28;20028;-65
2021/03/29 10:50:53;;;;;;;0.00;0.00;;;;;;;;;;5093702;28;20034;-66
2021/03/29 10:53:18;;;;;;;0.00;0.00;;;;;;;;;;5071432;28;20364;-65
2021/03/29 10:55:43;;;;;;;0.00;0.00;;;;;;;;;;5090913;28;20051;-66
2021/03/29 10:58:09;;;;;;;0.00;0.00;;;;;;;;;;5069153;28;20783;-66
2021/03/29 11:00:34;;;;;;;0.00;0.00;;;;;;;;;;5076430;28;20312;-65
2021/03/29 11:02:59;;;;;;;0.00;0.00;;;;;;;;;;5065047;28;20285;-65
2021/03/29 11:05:24;;;;;;;0.00;0.00;;;;;;;;;;5104569;28;20022;-65
2021/03/29 11:07:49;;;;;;;0.00;0.00;;;;;;;;;;5075697;28;20019;-65
2021/03/29 11:10:14;;;;;;;0.00;0.00;;;;;;;;;;5096450;28;20376;-65
2021/03/29 11:12:40;;;;;;;0.00;0.00;;;;;;;;;;5092997;28;21121;-66
2021/03/29 11:15:08;;;;;;;0.00;0.00;;;;;;;;;;5058529;28;20280;-66
2021/03/29 11:17:36;;;;;;;0.00;0.00;;;;;;;;;;5073192;28;20146;-65
2021/03/29 11:20:01;;;;;;;0.00;0.00;;;;;;;;;;5063084;28;20027;-66
2021/03/29 11:22:27;;;;;;;0.00;0.00;;;;;;;;;;5067515;28;20016;-66
2021/03/29 11:24:52;;;;;;;0.00;0.00;;;;;;;;;;5068801;28;20039;-66
2021/03/29 11:27:17;;;;;;;0.00;0.00;;;;;;;;;;5108354;28;20031;-66
2021/03/29 11:29:43;;;;;;;0.00;0.00;;;;;;;;;;5090244;28;20281;-66
2021/03/29 11:32:08;;;;;;;0.00;0.00;;;;;;;;;;5073383;28;20315;-66
2021/03/29 11:34:33;;;;;;;0.00;0.00;;;;;;;;;;5089696;28;20035;-66
2021/03/29 11:36:58;;;;;;;0.00;0.00;;;;;;;;;;5092491;28;20422;-66
2021/03/29 11:39:23;;;;;;;0.00;0.00;;;;;;;;;;5108347;28;20400;-66
2021/03/29 11:41:48;;;;;;;0.00;0.00;;;;;;;;;;5074867;28;20468;-66
2021/03/29 11:44:14;;;;;;;0.00;0.00;;;;;;;;;;5110226;28;20334;-66
2021/03/29 11:46:39;;;;;;;0.00;0.00;;;;;;;;;;5091900;28;20261;-66
2021/03/29 11:49:04;;;;;;;0.00;0.00;;;;;;;;;;5091982;28;20273;-66
2021/03/29 11:51:30;;;;;;;0.00;0.00;;;;;;;;;;5110544;28;20269;-66
2021/03/29 11:53:55;;;;;;;0.00;0.00;;;;;;;;;;5073840;28;20062;-66
2021/03/29 11:56:20;;;;;;;0.00;0.00;;;;;;;;;;5091743;28;20026;-66
2021/03/29 11:58:48;;;;;;;0.00;0.00;;;;;;;;;;5090924;28;20273;-66
2021/03/29 12:01:25;;;;;;;0.00;0.00;;;;;;;;;;5111895;28;20055;-66
2021/03/29 12:03:55;;;;;;;0.00;0.00;;;;;;;;;;5096949;28;20448;-66
2021/03/29 12:06:26;;;;;;;0.00;0.00;;;;;;;;;;5113656;28;20402;-66
2021/03/29 12:08:57;;;;;;;0.00;0.00;;;;;;;;;;5111805;28;20031;-66
2021/03/29 12:14:06;;;;;;;0.00;0.00;;;;;;;;;;5098239;28;20026;-67
2021/03/29 12:16:38;;;;;;;0.00;0.00;;;;;;;;;;5095281;28;20035;-66
2021/03/29 12:19:03;;;;;;;0.00;0.00;;;;;;;;;;5095819;28;20081;-65
2021/03/29 12:21:29;;;;;;;0.00;0.00;;;;;;;;;;5094856;28;20015;-65
2021/03/29 12:23:59;;;;;;;0.00;0.00;;;;;;;;;;5093945;28;20027;-66
2021/03/29 12:26:25;;;;;;;0.00;0.00;;;;;;;;;;5075215;28;20049;-65
2021/03/29 12:28:51;;;;;;;0.00;0.00;;;;;;;;;;5093345;28;20384;-66
2021/03/29 12:31:17;;;;;;;0.00;0.00;;;;;;;;;;5075232;28;20020;-65
2021/03/29 12:33:42;;;;;;;0.00;0.00;;;;;;;;;;5074417;28;20023;-65
2021/03/29 12:36:07;;;;;;;0.00;0.00;;;;;;;;;;5074073;28;20020;-66
2021/03/29 12:38:34;;;;;;;0.00;0.00;;;;;;;;;;5072768;28;20304;-65
2021/03/29 12:41:03;;;;;;;0.00;0.00;;;;;;;;;;5074743;28;20027;-66
2021/03/29 12:43:46;;;;;;;0.00;0.00;;;;;;;;;;5071963;28;20107;-66
2021/03/29 12:46:17;;;;;;;0.00;0.00;;;;;;;;;;5076316;28;20019;-65
2021/03/29 12:48:42;;;;;;;0.00;0.00;;;;;;;;;;5073672;28;20705;-65
2021/03/29 12:51:08;;;;;;;0.00;0.00;;;;;;;;;;5074125;28;20055;-65
2021/03/29 12:53:34;;;;;;;0.00;0.00;;;;;;;;;;5091430;28;20026;-65
2021/03/29 12:55:59;;;;;;;0.00;0.00;;;;;;;;;;5092985;28;20529;-65
2021/03/29 12:58:24;;;;;;;0.00;0.00;;;;;;;;;;5072000;28;20073;-65
2021/03/29 13:00:50;;;;;;;0.00;0.00;;;;;;;;;;5090971;28;20535;-66
2021/03/29 13:03:16;;;;;;;0.00;0.00;;;;;;;;;;5059421;28;20023;-66
2021/03/29 13:05:51;;;;;;;0.00;0.00;;;;;;;;;;5074664;28;20020;-66
2021/03/29 13:08:20;;;;;;;0.00;0.00;;;;;;;;;;5093211;28;20093;-65
2021/03/29 13:13:13;;;;;;;0.00;0.00;;;;;;;;;;5073711;28;20151;-65
2021/03/29 13:15:38;;;;;;;0.00;0.00;;;;;;;;;;5073829;28;20123;-65
2021/03/29 13:18:03;;;;;;;0.00;0.00;;;;;;;;;;5056755;28;20027;-65
2021/03/29 13:20:29;;;;;;;0.00;0.00;;;;;;;;;;5073945;28;20020;-65
2021/03/29 13:22:54;;;;;;;0.00;0.00;;;;;;;;;;5073855;28;20283;-67
2021/03/29 13:25:28;;;;;;;0.00;0.00;;;;;;;;;;5075873;28;20098;-67
2021/03/29 13:27:53;;;;;;;0.00;0.00;;;;;;;;;;5073910;28;20480;-66
2021/03/29 13:30:19;;;;;;;0.00;0.00;;;;;;;;;;5073575;28;20027;-66
2021/03/29 13:32:44;;;;;;;0.00;0.00;;;;;;;;;;5073367;28;20099;-67
2021/03/29 13:35:10;;;;;;;0.00;0.00;;;;;;;;;;5073310;28;20468;-67
2021/03/29 13:37:35;;;;;;;0.00;0.00;;;;;;;;;;5072680;28;20028;-66
2021/03/29 13:40:01;;;;;;;0.00;0.00;;;;;;;;;;5072028;28;20031;-66
2021/03/29 13:42:26;;;;;;;0.00;0.00;;;;;;;;;;5073191;28;21071;-67
2021/03/29 13:44:51;;;;;;;0.00;0.00;;;;;;;;;;5073390;28;20015;-67
2021/03/29 13:47:17;;;;;;;0.00;0.00;;;;;;;;;;5073473;28;20429;-67
2021/03/29 13:49:42;;;;;;;0.00;0.00;;;;;;;;;;5073390;28;20028;-67
2021/03/29 13:52:07;;;;;;;0.00;0.00;;;;;;;;;;5070568;28;20778;-66
2021/03/29 13:54:35;;;;;;;0.00;0.00;;;;;;;;;;5052468;28;20069;-67
2021/03/29 13:57:04;;;;;;;0.00;0.00;;;;;;;;;;5073865;28;20092;-66
2021/03/29 13:59:29;;;;;;;0.00;0.00;;;;;;;;;;5093196;28;20023;-66
2021/03/29 14:01:55;;;;;;;0.00;0.00;;;;;;;;;;5051845;28;20418;-66
2021/03/29 14:04:20;;;;;;;0.00;0.00;;;;;;;;;;5070613;28;20028;-66
2021/03/29 14:06:45;;;;;;;0.00;0.00;;;;;;;;;;5053065;28;20762;-66
2021/03/29 14:09:14;;;;;;;0.00;0.00;;;;;;;;;;5066738;28;20019;-66
2021/03/29 14:11:39;;;;;;;0.00;0.00;;;;;;;;;;5087502;28;20636;-66
2021/03/29 14:14:04;;;;;;;0.00;0.00;;;;;;;;;;5070595;28;20028;-67
2021/03/29 14:16:30;;;;;;;0.00;0.00;;;;;;;;;;5088683;28;20555;-66
2021/03/29 14:18:55;;;;;;;0.00;0.00;;;;;;;;;;5087468;28;20085;-66
2021/03/29 14:21:21;;;;;;;0.00;0.00;;;;;;;;;;5070070;28;20032;-67
2021/03/29 14:23:46;;;;;;;0.00;0.00;;;;;;;;;;5088242;28;20050;-66
2021/03/29 14:26:11;;;;;;;0.00;0.00;;;;;;;;;;5069918;28;20083;-65
2021/03/29 14:28:37;;;;;;;0.00;0.00;;;;;;;;;;5069208;28;20077;-66
2021/03/29 14:31:02;;;;;;;0.00;0.00;;;;;;;;;;5070911;28;20266;-66
2021/03/29 14:33:28;;;;;;;0.00;0.00;;;;;;;;;;5087360;28;20035;-66
2021/03/29 14:36:04;;;;;;;0.00;0.00;;;;;;;;;;5069824;28;20024;-66
2021/03/29 14:46:34;;;;;;;0.00;0.00;;;;;;;;;;5090551;28;20031;-66
2021/03/29 14:48:59;;;;;;;0.00;0.00;;;;;;;;;;5071433;28;20380;-66
2021/03/29 14:51:24;;;;;;;0.00;0.00;;;;;;;;;;5054739;28;20115;-66
2021/03/29 14:53:50;;;;;;;0.00;0.00;;;;;;;;;;5071975;28;20020;-66
2021/03/29 14:56:15;;;;;;;0.00;0.00;;;;;;;;;;5071326;28;20477;-66